createdAt,value
2023-05-21T10:06:09.725Z,100614.99
2023-05-21T10:08:39.027Z,100608.69
2023-05-21T10:11:07.851Z,100613.02
2023-05-21T10:13:40.810Z,100612.48
2023-05-21T10:16:09.620Z,100609.34
2023-05-21T10:18:40.496Z,100610.38
2023-05-21T10:21:08.990Z,100610.98
2023-05-21T10:23:43.090Z,100609.30
2023-05-21T10:26:10.256Z,100606.05
2023-05-21T10:28:37.999Z,100604.19
2023-05-21T10:31:05.323Z,100604.34
2023-05-21T10:33:33.850Z,100602.96
2023-05-21T10:36:04.332Z,100591.63
2023-05-21T10:38:32.466Z,100590.21
2023-05-21T10:41:00.690Z,100587.70
2023-05-21T10:44:04.435Z,100586.79
2023-05-21T10:46:34.460Z,100587.06
2023-05-21T10:49:40.491Z,100591.80
2023-05-21T10:52:51.227Z,100596.47
2023-05-21T10:55:22.740Z,100597.58
2023-05-21T10:58:30.993Z,100605.29
2023-05-21T11:01:02.110Z,100608.86
2023-05-21T11:03:30.278Z,100604.20
2023-05-21T11:06:00.711Z,100599.69
2023-05-21T11:08:36.244Z,100598.89
2023-05-21T11:11:04.975Z,100602.65
2023-05-21T11:13:52.801Z,100600.77
2023-05-21T11:16:26.647Z,100594.39
2023-05-21T11:19:00.725Z,100592.16
2023-05-21T11:21:42.121Z,100589.48
2023-05-21T11:24:13.792Z,100590.15
2023-05-21T11:27:05.023Z,100594.60
2023-05-21T11:29:53.452Z,100597.13
2023-05-21T11:32:39.448Z,100605.51
2023-05-21T11:35:53.336Z,100621.64
2023-05-21T11:38:20.844Z,100654.45
2023-05-21T11:41:02.812Z,100685.77
2023-05-21T11:44:02.096Z,100686.40
2023-05-21T11:46:29.409Z,100682.20
2023-05-21T11:49:03.487Z,100684.54
2023-05-21T11:51:48.912Z,100682.83
2023-05-21T11:54:22.470Z,100681.60
2023-05-21T11:57:14.397Z,100686.92
2023-05-21T11:59:42.281Z,100687.39
2023-05-21T12:02:15.077Z,100695.23
2023-05-21T12:04:46.065Z,100691.28
2023-05-21T12:07:21.186Z,100694.98
2023-05-21T12:09:50.269Z,100698.20
2023-05-21T12:12:19.778Z,100696.10
2023-05-21T12:14:52.740Z,100695.55
2023-05-21T12:17:37.800Z,100696.38
2023-05-21T12:20:08.822Z,100699.69
2023-05-21T12:22:37.627Z,100712.41
2023-05-21T12:34:54.192Z,100721.34
2023-05-21T12:37:22.711Z,100725.89
2023-05-21T12:39:58.242Z,100722.52
2023-05-21T12:42:31.083Z,100728.93
2023-05-21T12:45:08.096Z,100720.14
2023-05-21T12:47:36.135Z,100721.27
2023-05-21T12:50:29.409Z,100716.87
2023-05-21T12:52:57.642Z,100718.34
2023-05-21T12:55:26.075Z,100728.65
2023-05-21T12:58:03.596Z,100733.88
2023-05-21T13:00:33.384Z,100741.91
2023-05-21T13:03:05.582Z,100754.89
2023-05-21T13:05:33.202Z,100751.61
2023-05-21T13:08:00.753Z,100739.58
2023-05-21T13:10:29.259Z,100732.90
2023-05-21T13:12:58.194Z,100731.54
2023-05-21T13:15:25.378Z,100736.41
2023-05-21T13:17:55.159Z,100736.85
2023-05-21T13:20:26.926Z,100736.75
2023-05-21T13:22:54.571Z,100733.81
2023-05-21T13:25:24.148Z,100721.83
2023-05-21T13:27:53.001Z,100725.45
2023-05-21T13:30:21.467Z,100729.00
2023-05-21T13:32:52.568Z,100729.58
2023-05-21T13:35:20.876Z,100733.50
2023-05-21T13:37:49.142Z,100736.24
2023-05-21T13:40:18.884Z,100738.08
2023-05-21T13:42:48.774Z,100735.89
2023-05-21T13:45:18.006Z,100730.48
2023-05-21T13:47:45.903Z,100721.73
2023-05-21T13:50:23.216Z,100713.73
2023-05-21T13:52:52.105Z,100703.02
2023-05-21T13:55:20.969Z,100693.85
2023-05-21T13:57:49.323Z,100681.37
2023-05-21T14:00:16.512Z,100676.25
2023-05-21T14:02:44.857Z,100665.59
2023-05-21T14:05:17.179Z,100657.55
2023-05-21T14:07:49.627Z,100660.10
2023-05-21T14:10:18.026Z,100676.89
2023-05-21T14:12:48.142Z,100680.36
2023-05-21T14:15:17.264Z,100680.31
2023-05-21T14:17:48.860Z,100678.00
2023-05-21T14:20:18.301Z,100670.66
2023-05-21T14:22:46.606Z,100675.02
2023-05-21T14:25:16.103Z,100690.09
2023-05-21T14:27:46.486Z,100711.39
2023-05-21T14:30:15.132Z,100730.21
2023-05-21T14:32:44.127Z,100739.77
2023-05-21T14:35:13.053Z,100741.52
2023-05-21T14:37:43.398Z,100744.41
2023-05-21T14:40:11.553Z,100737.80
2023-05-21T14:42:39.610Z,100733.98
2023-05-21T14:45:18.740Z,100736.22
2023-05-21T14:47:49.651Z,100740.44
2023-05-21T14:50:17.941Z,100734.83
2023-05-21T14:52:51.472Z,100734.27
2023-05-21T14:55:28.435Z,100745.39
2023-05-21T14:57:55.987Z,100738.52
2023-05-21T15:00:24.608Z,100730.55
2023-05-21T15:03:12.912Z,100733.19
2023-05-21T15:05:46.105Z,100730.77
2023-05-21T15:08:23.270Z,100731.57
2023-05-21T15:10:52.446Z,100734.58
2023-05-21T15:13:20.966Z,100728.73
2023-05-21T15:15:50.915Z,100720.27
2023-05-21T15:18:22.338Z,100715.77
2023-05-21T15:20:52.082Z,100716.93
2023-05-21T15:23:21.868Z,100714.57
2023-05-21T15:25:51.410Z,100715.31
2023-05-21T15:28:20.409Z,100716.20
2023-05-21T15:30:50.736Z,100716.93
2023-05-21T15:33:18.185Z,100714.65
2023-05-21T15:35:51.301Z,100718.20
2023-05-21T15:38:38.384Z,100718.44
2023-05-21T15:41:11.372Z,100722.92
2023-05-21T15:43:39.648Z,100731.85
2023-05-21T15:46:16.231Z,100736.85
2023-05-21T15:48:45.768Z,100738.51
2023-05-21T15:51:14.902Z,100733.70
2023-05-21T15:53:47.024Z,100728.66
2023-05-21T15:56:18.855Z,100725.77
2023-05-21T15:59:00.266Z,100724.27
2023-05-21T16:01:28.603Z,100723.44
2023-05-21T16:04:10.100Z,100731.39
2023-05-21T16:06:43.248Z,100736.30
2023-05-21T16:09:15.370Z,100741.08
2023-05-21T16:11:44.582Z,100742.75
2023-05-21T16:14:13.449Z,100743.58
2023-05-21T16:16:44.930Z,100750.00
2023-05-21T16:19:15.799Z,100750.17
2023-05-21T16:21:44.780Z,100749.96
2023-05-21T16:24:13.566Z,100745.82
2023-05-21T16:26:40.724Z,100746.83
2023-05-21T16:29:19.239Z,100741.27
2023-05-21T16:31:48.668Z,100737.96
2023-05-21T16:34:32.745Z,100737.07
2023-05-21T16:37:01.424Z,100730.48
2023-05-21T16:39:37.051Z,100727.16
2023-05-21T16:42:07.163Z,100724.89
2023-05-21T16:44:37.472Z,100726.16
2023-05-21T16:47:08.264Z,100723.86
2023-05-21T16:49:36.411Z,100722.51
2023-05-21T16:52:06.116Z,100728.83
2023-05-21T16:54:34.184Z,100727.04
2023-05-21T16:57:03.588Z,100727.55
2023-05-21T16:59:34.878Z,100722.04
2023-05-21T17:02:05.659Z,100720.23
2023-05-21T17:04:35.724Z,100719.84
2023-05-21T17:07:04.742Z,100714.67
2023-05-21T17:09:34.222Z,100711.66
2023-05-21T17:12:04.924Z,100707.64
2023-05-21T17:14:34.281Z,100703.27
2023-05-21T17:17:03.293Z,100703.35
2023-05-21T17:19:31.365Z,100699.27
2023-05-21T17:21:59.878Z,100694.61
2023-05-21T17:24:31.659Z,100687.26
2023-05-21T17:26:59.866Z,100683.29
2023-05-21T17:29:29.253Z,100674.39
2023-05-21T17:32:01.128Z,100665.08
2023-05-21T17:34:31.764Z,100654.64
2023-05-21T17:37:00.531Z,100650.72
2023-05-21T17:39:32.194Z,100654.33
2023-05-21T17:42:01.003Z,100657.65
2023-05-21T17:44:30.238Z,100653.53
2023-05-21T17:46:58.071Z,100641.61
2023-05-21T17:49:33.846Z,100640.16
2023-05-21T17:52:07.629Z,100644.03
2023-05-21T17:54:35.870Z,100648.46
2023-05-21T17:57:05.629Z,100653.20
2023-05-21T17:59:34.751Z,100646.98
2023-05-21T18:02:02.685Z,100650.45
2023-05-21T18:04:34.719Z,100652.70
2023-05-21T18:07:03.838Z,100649.58
2023-05-21T18:09:32.273Z,100646.27
2023-05-21T18:12:03.014Z,100646.30
2023-05-21T18:14:33.560Z,100639.10
2023-05-21T18:17:02.101Z,100639.84
2023-05-21T18:19:30.896Z,100640.91
2023-05-21T18:22:06.286Z,100635.56
2023-05-21T18:24:37.955Z,100635.16
2023-05-21T18:27:05.744Z,100633.70
2023-05-21T18:29:37.756Z,100631.73
2023-05-21T18:32:05.944Z,100631.30
2023-05-21T18:34:33.827Z,100630.16
2023-05-21T18:37:01.628Z,100627.55
2023-05-21T18:39:29.720Z,100620.20
2023-05-21T18:42:12.282Z,100616.41
2023-05-21T18:44:41.202Z,100614.30
2023-05-21T18:47:13.307Z,100605.54
2023-05-21T18:49:43.013Z,100605.80
2023-05-21T18:52:15.188Z,100599.46
2023-05-21T18:54:45.338Z,100614.20
2023-05-21T18:57:15.265Z,100619.42
2023-05-21T18:59:43.335Z,100628.83
2023-05-21T19:02:16.301Z,100631.61
2023-05-21T19:04:45.556Z,100640.74
2023-05-21T19:07:15.310Z,100638.06
2023-05-21T19:09:43.724Z,100640.54
2023-05-21T19:12:13.972Z,100642.81
2023-05-21T19:14:50.287Z,100644.05
2023-05-21T19:17:19.498Z,100643.02
2023-05-21T19:19:53.718Z,100632.76
2023-05-21T19:22:26.420Z,100630.50
2023-05-21T19:24:54.560Z,100628.75
2023-05-21T19:27:22.796Z,100625.38
2023-05-21T19:29:56.866Z,100627.17
2023-05-21T19:32:24.710Z,100629.55
2023-05-21T19:34:57.320Z,100628.37
2023-05-21T19:37:29.053Z,100629.80
2023-05-21T19:40:02.891Z,100632.13
2023-05-21T19:42:34.036Z,100629.27
2023-05-21T19:45:01.929Z,100638.02
2023-05-21T19:47:31.795Z,100640.14
2023-05-21T19:50:03.031Z,100644.42
2023-05-21T19:52:33.841Z,100650.30
2023-05-21T19:55:05.249Z,100659.94
2023-05-21T19:57:33.005Z,100671.06
2023-05-21T20:00:06.017Z,100695.71
2023-05-21T20:02:40.499Z,100712.35
2023-05-21T20:05:09.917Z,100712.33
2023-05-21T20:07:37.307Z,100685.34
2023-05-21T20:10:07.956Z,100688.63
2023-05-21T20:12:38.075Z,100704.16
2023-05-21T20:15:13.259Z,100707.55
2023-05-21T20:17:44.558Z,100690.10
2023-05-21T20:20:13.334Z,100692.27
2023-05-21T20:22:43.023Z,100674.14
2023-05-21T20:25:11.068Z,100682.77
2023-05-21T20:27:38.671Z,100669.64
2023-05-21T20:30:07.251Z,100670.03
2023-05-21T20:32:37.238Z,100658.46
2023-05-21T20:35:08.429Z,100649.52
2023-05-21T20:37:36.821Z,100649.88
2023-05-21T20:40:06.235Z,100643.00
2023-05-21T20:42:35.989Z,100634.61
2023-05-21T20:45:04.064Z,100639.13
2023-05-21T20:47:34.301Z,100640.05
2023-05-21T20:50:05.344Z,100634.29
2023-05-21T20:52:39.576Z,100640.23
2023-05-21T20:55:08.426Z,100640.80
2023-05-21T20:57:36.778Z,100633.05
2023-05-21T21:00:06.336Z,100634.27
2023-05-21T21:02:34.699Z,100635.09
2023-05-21T21:05:03.012Z,100628.89
2023-05-21T21:07:32.703Z,100626.05
2023-05-21T21:10:00.884Z,100620.42
2023-05-21T21:12:28.668Z,100617.45
2023-05-21T21:14:56.248Z,100614.23
2023-05-21T21:17:24.551Z,100612.16
2023-05-21T21:19:52.461Z,100603.85
2023-05-21T21:22:20.416Z,100607.00
2023-05-21T21:24:49.616Z,100603.37
2023-05-21T21:27:17.103Z,100602.97
2023-05-21T21:29:47.138Z,100604.47
2023-05-21T21:32:14.910Z,100602.09
2023-05-21T21:34:42.519Z,100606.16
2023-05-21T21:37:09.855Z,100607.96
2023-05-21T21:39:37.946Z,100606.04
2023-05-21T21:42:05.969Z,100610.90
2023-05-21T21:44:34.157Z,100605.61
2023-05-21T21:47:01.469Z,100604.39
2023-05-21T21:49:28.996Z,100604.20
2023-05-21T21:51:57.619Z,100608.67
2023-05-21T21:54:27.187Z,100611.05
2023-05-21T21:56:54.862Z,100612.17
2023-05-21T21:59:22.552Z,100608.52
2023-05-21T22:01:49.777Z,100608.38
2023-05-21T22:04:18.042Z,100608.56
2023-05-21T22:06:46.270Z,100603.91
2023-05-21T22:09:14.292Z,100604.41
2023-05-21T22:11:43.505Z,100603.36
2023-05-21T22:14:11.805Z,100596.80
2023-05-21T22:16:41.134Z,100597.36
2023-05-21T22:19:09.477Z,100591.02
2023-05-21T22:21:38.024Z,100590.86
2023-05-21T22:24:12.757Z,100587.99
2023-05-21T22:26:44.867Z,100584.97
2023-05-21T22:29:12.264Z,100585.50
2023-05-21T22:31:40.311Z,100586.92
2023-05-21T22:34:07.561Z,100590.52
2023-05-21T22:36:34.655Z,100579.58
2023-05-21T22:39:03.426Z,100579.98
2023-05-21T22:41:30.726Z,100579.45
2023-05-21T22:43:58.337Z,100574.30
2023-05-21T22:46:27.151Z,100572.70
2023-05-21T22:48:54.243Z,100575.73
2023-05-21T22:51:21.966Z,100574.13
2023-05-21T22:53:49.139Z,100575.59
2023-05-21T22:56:30.592Z,100574.91
2023-05-21T22:58:59.058Z,100570.14
2023-05-21T23:01:27.455Z,100568.73
2023-05-21T23:03:55.218Z,100568.15
2023-05-21T23:06:22.306Z,100566.52
2023-05-21T23:08:49.462Z,100568.85
2023-05-21T23:11:17.722Z,100571.23
2023-05-21T23:13:45.930Z,100577.58
2023-05-21T23:16:33.083Z,100575.38
2023-05-21T23:19:01.409Z,100574.02
2023-05-21T23:21:29.338Z,100571.03
2023-05-21T23:23:56.700Z,100574.42
2023-05-21T23:26:25.057Z,100572.66
2023-05-21T23:28:52.561Z,100576.77
2023-05-21T23:31:37.906Z,100582.96
2023-05-21T23:34:06.457Z,100577.70
2023-05-21T23:36:34.272Z,100577.59
2023-05-21T23:39:02.801Z,100574.73
2023-05-21T23:41:30.671Z,100572.96
2023-05-21T23:43:59.004Z,100567.45
2023-05-21T23:46:42.731Z,100565.33
2023-05-21T23:49:11.833Z,100563.58
2023-05-21T23:51:40.110Z,100562.18
2023-05-21T23:54:08.264Z,100559.52
2023-05-21T23:56:35.895Z,100559.35
2023-05-21T23:59:03.004Z,100555.77
